createdAt,value
2018-07-14T00:00:44.181Z,100483.09
2018-07-14T00:10:51.550Z,100497.57
2018-07-14T00:20:57.074Z,100505.36
2018-07-14T00:31:05.297Z,100504.80
2018-07-14T00:41:10.934Z,100506.13
2018-07-14T00:51:13.938Z,100515.31
2018-07-14T01:01:16.983Z,100512.44
2018-07-14T01:11:21.214Z,100509.77
2018-07-14T01:21:25.946Z,100516.81
2018-07-14T01:31:29.061Z,100526.99
2018-07-14T01:41:33.447Z,100522.03
2018-07-14T01:51:38.463Z,100521.36
2018-07-14T02:01:43.116Z,100511.09
2018-07-14T02:11:48.041Z,100517.41
2018-07-14T02:21:52.284Z,100519.11
2018-07-14T02:31:58.191Z,100517.42
2018-07-14T02:42:04.162Z,100520.43
2018-07-14T02:52:14.488Z,100531.58
2018-07-14T03:02:18.229Z,100528.58
2018-07-14T03:12:24.449Z,100528.93
2018-07-14T03:22:36.042Z,100540.57
2018-07-14T03:32:39.077Z,100549.27
2018-07-14T03:42:43.126Z,100555.69
2018-07-14T03:52:47.204Z,100552.43
2018-07-14T04:02:58.209Z,100548.05
2018-07-14T04:13:03.144Z,100560.55
2018-07-14T04:23:07.286Z,100556.16
2018-07-14T04:33:12.193Z,100566.83
2018-07-14T04:43:16.675Z,100574.23
2018-07-14T04:53:21.192Z,100571.00
2018-07-14T05:03:25.718Z,100567.25
2018-07-14T05:13:30.280Z,100569.16
2018-07-14T05:23:34.277Z,100568.81
2018-07-14T05:33:38.429Z,100569.70
2018-07-14T05:43:43.279Z,100578.81
2018-07-14T05:53:50.343Z,100577.69
2018-07-14T06:04:02.102Z,100582.70
2018-07-14T06:14:05.259Z,100589.69
2018-07-14T06:24:11.695Z,100591.23
2018-07-14T06:34:17.875Z,100595.06
2018-07-14T06:44:28.566Z,100592.02
2018-07-14T06:54:37.581Z,100605.86
2018-07-14T07:04:48.296Z,100605.52
2018-07-14T07:14:55.194Z,100603.98
2018-07-14T07:25:00.215Z,100604.84
2018-07-14T07:35:04.923Z,100608.05
2018-07-14T07:45:39.802Z,100594.60
2018-07-14T07:55:44.291Z,100601.69
2018-07-14T08:05:48.318Z,100601.18
2018-07-14T08:15:52.305Z,100600.28
2018-07-14T08:25:59.707Z,100595.08
2018-07-14T08:36:04.470Z,100591.23
2018-07-14T08:46:10.322Z,100597.02
2018-07-14T08:56:14.456Z,100585.14
2018-07-14T09:06:19.583Z,100581.63
2018-07-14T09:16:25.430Z,100584.98
2018-07-14T09:26:29.537Z,100578.95
2018-07-14T09:36:36.351Z,100578.02
2018-07-14T09:46:42.301Z,100572.46
2018-07-14T09:56:45.429Z,100559.94
2018-07-14T10:06:49.659Z,100561.73
2018-07-14T10:16:55.421Z,100564.28
2018-07-14T10:27:00.595Z,100560.55
2018-07-14T10:37:05.512Z,100547.72
2018-07-14T10:47:10.524Z,100531.73
2018-07-14T10:57:14.576Z,100528.55
2018-07-14T11:07:20.858Z,100504.01
2018-07-14T11:17:25.512Z,100505.80
2018-07-14T11:27:30.014Z,100490.91
2018-07-14T11:37:35.397Z,100485.11
2018-07-14T11:47:38.457Z,100481.45
2018-07-14T11:57:42.659Z,100465.41
2018-07-14T12:07:50.582Z,100464.09
2018-07-14T12:17:56.951Z,100456.62
2018-07-14T12:28:01.663Z,100434.77
2018-07-14T12:38:08.450Z,100429.70
2018-07-14T12:48:11.470Z,100409.56
2018-07-14T12:58:14.576Z,100410.30
2018-07-14T13:08:29.709Z,100405.23
2018-07-14T13:18:35.559Z,100396.55
2018-07-14T13:28:39.658Z,100385.41
2018-07-14T13:38:51.265Z,100383.01
2018-07-14T13:48:53.127Z,100377.16
2018-07-14T13:58:59.499Z,100364.57
2018-07-14T14:09:04.627Z,100350.10
2018-07-14T14:19:09.800Z,100339.36
2018-07-14T14:29:13.669Z,100338.30
2018-07-14T14:39:21.679Z,100322.81
2018-07-14T14:49:25.598Z,100321.33
2018-07-14T14:59:29.549Z,100311.19
2018-07-14T15:09:34.705Z,100322.31
2018-07-14T15:19:39.600Z,100306.41
2018-07-14T15:29:43.894Z,100301.11
2018-07-14T15:39:49.785Z,100301.41
2018-07-14T15:49:54.587Z,100291.73
2018-07-14T16:00:00.201Z,100284.90
2018-07-14T16:10:07.566Z,100285.84
2018-07-14T16:20:17.820Z,100285.38
2018-07-14T16:30:21.082Z,100290.28
2018-07-14T16:40:24.707Z,100275.03
2018-07-14T16:50:27.723Z,100273.09
2018-07-14T17:07:29.698Z,100276.89
2018-07-14T17:17:43.758Z,100283.69
2018-07-14T17:27:47.490Z,100288.02
2018-07-14T17:37:51.766Z,100281.97
2018-07-14T17:47:55.924Z,100285.91
2018-07-14T17:58:06.742Z,100284.97
2018-07-14T18:08:09.765Z,100279.58
2018-07-14T18:18:12.950Z,100277.25
2018-07-14T18:28:16.020Z,100278.56
2018-07-14T18:38:19.126Z,100291.98
2018-07-14T18:48:22.278Z,100305.15
2018-07-14T18:58:25.448Z,100305.39
2018-07-14T19:08:28.550Z,100324.43
2018-07-14T19:18:31.530Z,100321.58
2018-07-14T19:28:34.539Z,100328.25
2018-07-14T19:38:37.574Z,100333.41
2018-07-14T19:48:41.190Z,100347.14
2018-07-14T19:58:44.288Z,100350.65
2018-07-14T20:08:47.457Z,100348.66
2018-07-14T20:18:51.212Z,100335.63
2018-07-14T20:28:54.308Z,100335.50
2018-07-14T20:38:57.496Z,100335.27
2018-07-14T20:49:00.576Z,100342.24
2018-07-14T20:59:03.685Z,100352.59
2018-07-14T21:09:07.229Z,100354.98
2018-07-14T21:19:10.441Z,100349.55
2018-07-14T21:29:13.630Z,100352.10
2018-07-14T21:39:16.818Z,100359.80
2018-07-14T21:49:19.782Z,100364.77
2018-07-14T21:59:22.927Z,100372.13
2018-07-14T22:09:26.540Z,100383.51
2018-07-14T22:19:29.626Z,100391.55
2018-07-14T22:29:32.980Z,100392.40
2018-07-14T22:39:37.120Z,100392.82
2018-07-14T22:49:40.086Z,100400.83
2018-07-14T22:59:43.376Z,100393.82
2018-07-14T23:09:46.664Z,100400.97
2018-07-14T23:19:49.660Z,100412.97
2018-07-14T23:29:52.930Z,100412.56
2018-07-14T23:39:55.978Z,100422.95
2018-07-14T23:49:59.111Z,100418.48
